Terminal Aerodrome Forecast
Issued by NWS

Current Version | Previous Version | Text Only | Print | Product List | Glossary Off
Versions: 1 2 3 4 5 6 7 8 9 10 11 12 13 14 15 16 17 18 19 20 21 22 23 24 25 26

000
FTUS41 KRNK 051200 RRA
TAFLWB
TAF
KLWB 051200Z 0512/0612 29006KT P6SM OVC025
     FM051500 32005KT P6SM SCT030 BKN250
     FM060100 00000KT P6SM BKN150 OVC250
     FM060700 09003KT P6SM -RA OVC050
     FM061000 09004KT 4SM -RA BR OVC011=

USA.gov is the U.S. government's official web portal to all federal, state and local government web resources and services.